Time;durP1;ratioP1;P1;durP2;ratioP2;P2;SDS_P1;SDS_P2;PMS_P1;PMS_P2;Temp;Humidity;BMP_temperature;BMP_pressure;BME280_temperature;BME280_humidity;BME280_pressure;Samples;Min_cycle;Max_cycle;Signal;HPM_P1;HPM_P2
2023/06/19 00:02:26;;;;;;;26.47;5.97;;;29.90;52.00;;;;;;5046633;28;20204;-70
2023/06/19 00:04:54;;;;;;;29.90;6.80;;;29.90;52.00;;;;;;5045318;28;20239;-68
2023/06/19 00:07:22;;;;;;;30.67;6.67;;;29.90;52.00;;;;;;5030649;28;20201;-63
2023/06/19 00:09:49;;;;;;;45.90;8.07;;;29.80;52.00;;;;;;5028959;28;20224;-68
2023/06/19 00:12:16;;;;;;;35.10;7.43;;;29.80;52.00;;;;;;5029483;28;20925;-72
2023/06/19 00:14:42;;;;;;;55.77;9.07;;;29.80;52.00;;;;;;5045182;28;20206;-74
2023/06/19 00:17:09;;;;;;;29.77;7.20;;;29.80;52.00;;;;;;5045603;28;20225;-68
2023/06/19 00:19:36;;;;;;;31.37;7.50;;;29.80;52.00;;;;;;5015017;28;20212;-69
2023/06/19 00:22:04;;;;;;;45.10;9.20;;;29.80;52.00;;;;;;5008748;28;20194;-76
2023/06/19 00:24:32;;;;;;;41.57;8.77;;;29.70;52.00;;;;;;5018776;28;20228;-74
2023/06/19 00:27:02;;;;;;;63.73;11.40;;;29.70;52.00;;;;;;5044426;28;20227;-64
2023/06/19 00:29:29;;;;;;;27.33;9.37;;;29.70;52.00;;;;;;5027570;28;20197;-67
2023/06/19 00:31:56;;;;;;;40.90;10.90;;;29.70;52.10;;;;;;5028980;28;20204;-67
2023/06/19 00:34:24;;;;;;;27.03;10.43;;;29.70;52.10;;;;;;5025145;28;20216;-63
2023/06/19 00:36:51;;;;;;;34.73;11.17;;;29.70;52.10;;;;;;5008954;28;20215;-63
2023/06/19 00:39:17;;;;;;;44.57;11.93;;;29.70;52.20;;;;;;5030673;28;20324;-64
2023/06/19 00:41:47;;;;;;;44.10;11.67;;;29.70;52.20;;;;;;5025300;28;20213;-64
2023/06/19 00:44:14;;;;;;;54.37;13.10;;;29.70;52.30;;;;;;5026940;28;20236;-65
2023/06/19 00:46:42;;;;;;;27.23;9.60;;;29.60;52.20;;;;;;5008261;28;20202;-65
2023/06/19 00:49:09;;;;;;;33.37;9.77;;;29.60;52.20;;;;;;5029183;28;20246;-65
2023/06/19 00:51:36;;;;;;;51.40;11.90;;;29.60;52.20;;;;;;5017999;28;20213;-64
2023/06/19 00:54:03;;;;;;;41.07;10.53;;;29.60;52.20;;;;;;5021922;28;20228;-64
2023/06/19 00:56:30;;;;;;;30.77;9.77;;;29.60;52.20;;;;;;5008338;28;20260;-63
2023/06/19 00:58:59;;;;;;;30.30;9.97;;;29.50;52.20;;;;;;5008176;28;20206;-64
2023/06/19 01:01:27;;;;;;;29.37;9.57;;;29.60;52.30;;;;;;5014372;28;20209;-63
2023/06/19 01:03:54;;;;;;;35.07;10.40;;;29.50;52.20;;;;;;5008433;28;20296;-64
2023/06/19 01:06:24;;;;;;;31.23;9.60;;;29.50;52.20;;;;;;5010976;28;20219;-65
2023/06/19 01:08:57;;;;;;;36.57;10.30;;;29.50;52.30;;;;;;5020534;28;20662;-69
2023/06/19 01:11:27;;;;;;;40.17;10.23;;;29.50;52.30;;;;;;5025185;28;20207;-63
2023/06/19 01:13:59;;;;;;;32.27;9.13;;;29.40;52.20;;;;;;5018704;28;20662;-74
2023/06/19 01:16:27;;;;;;;26.27;8.73;;;29.40;52.30;;;;;;5043911;28;20219;-74
2023/06/19 01:18:54;;;;;;;31.83;9.03;;;29.40;52.30;;;;;;5021397;28;20288;-71
2023/06/19 01:21:21;;;;;;;29.90;8.90;;;29.40;52.30;;;;;;5021919;28;20591;-76
2023/06/19 01:23:49;;;;;;;33.87;8.77;;;29.40;52.30;;;;;;5007681;28;20229;-76
2023/06/19 01:26:17;;;;;;;34.87;8.50;;;29.40;52.30;;;;;;5008224;28;20634;-76
2023/06/19 01:28:46;;;;;;;28.37;7.50;;;29.40;52.30;;;;;;5027265;28;20207;-70
2023/06/19 01:31:18;;;;;;;32.90;8.03;;;29.30;52.20;;;;;;5044192;28;20261;-66
2023/06/19 01:33:47;;;;;;;33.97;8.10;;;29.30;52.20;;;;;;5038840;28;20227;-69
2023/06/19 01:36:15;;;;;;;25.87;7.60;;;29.30;52.30;;;;;;5015640;28;20293;-69
2023/06/19 01:38:45;;;;;;;31.43;7.87;;;29.30;52.30;;;;;;5011451;28;20216;-67
2023/06/19 01:41:14;;;;;;;29.77;7.87;;;29.30;52.40;;;;;;5020400;28;20200;-66
2023/06/19 01:43:42;;;;;;;43.07;8.77;;;29.30;52.30;;;;;;5034291;28;20665;-65
2023/06/19 01:46:09;;;;;;;30.87;7.60;;;29.20;52.30;;;;;;5027520;28;20220;-67
2023/06/19 01:48:36;;;;;;;28.37;6.87;;;29.20;52.30;;;;;;5027909;28;20205;-66
2023/06/19 01:51:04;;;;;;;32.83;7.77;;;29.20;52.30;;;;;;5028319;28;20189;-71
2023/06/19 01:53:31;;;;;;;27.00;6.43;;;29.10;52.30;;;;;;5027531;28;20771;-63
2023/06/19 01:55:58;;;;;;;28.93;6.90;;;29.10;52.20;;;;;;5026498;28;20223;-67
2023/06/19 01:58:27;;;;;;;43.33;8.47;;;29.10;52.30;;;;;;5036062;28;20200;-65
2023/06/19 02:00:54;;;;;;;34.13;7.30;;;29.10;52.30;;;;;;5043157;28;20203;-71
2023/06/19 02:03:21;;;;;;;28.97;6.80;;;29.10;52.20;;;;;;5041597;28;20212;-64
2023/06/19 02:05:48;;;;;;;35.47;7.07;;;29.10;52.20;;;;;;5021814;28;20576;-65
2023/06/19 02:08:14;;;;;;;48.17;8.77;;;29.10;52.20;;;;;;5025322;28;20205;-64
2023/06/19 02:10:41;;;;;;;46.63;9.47;;;29.00;52.30;;;;;;5028553;28;20205;-66
2023/06/19 02:13:09;;;;;;;27.30;7.37;;;29.00;52.20;;;;;;5021509;28;20196;-64
2023/06/19 02:15:38;;;;;;;35.70;8.00;;;29.00;52.20;;;;;;5032236;28;20204;-64
2023/06/19 02:18:05;;;;;;;28.90;8.27;;;29.00;52.10;;;;;;5009604;28;21015;-66
2023/06/19 02:20:32;;;;;;;55.93;10.37;;;29.00;52.10;;;;;;5007035;28;20208;-64
2023/06/19 02:22:59;;;;;;;41.03;9.13;;;28.90;52.00;;;;;;5031053;28;20201;-65
2023/06/19 02:25:26;;;;;;;32.47;8.43;;;28.90;52.00;;;;;;5026408;28;20233;-64
2023/06/19 02:27:52;;;;;;;69.17;11.67;;;28.90;52.60;;;;;;5024309;28;20197;-64
2023/06/19 02:30:19;;;;;;;29.27;8.27;;;28.80;51.90;;;;;;5015226;28;20197;-77
2023/06/19 02:32:48;;;;;;;33.77;8.60;;;28.80;51.90;;;;;;5034636;28;20987;-72
2023/06/19 02:35:15;;;;;;;31.53;8.90;;;28.80;51.90;;;;;;5032336;28;20772;-71
2023/06/19 02:37:42;;;;;;;34.70;8.83;;;28.80;51.90;;;;;;5030893;28;20232;-66
2023/06/19 02:40:10;;;;;;;37.23;9.10;;;28.70;51.80;;;;;;5025105;28;20674;-76
2023/06/19 02:42:37;;;;;;;32.33;7.93;;;28.70;51.80;;;;;;5039597;28;20196;-64
2023/06/19 02:45:04;;;;;;;35.17;8.93;;;28.70;52.40;;;;;;5035256;28;20283;-67
2023/06/19 02:47:31;;;;;;;42.53;9.43;;;28.70;51.80;;;;;;5024217;28;20209;-65
2023/06/19 02:50:00;;;;;;;35.37;8.90;;;28.70;51.80;;;;;;5029299;28;20885;-65
2023/06/19 02:52:28;;;;;;;35.90;9.97;;;28.60;51.80;;;;;;5039843;28;20201;-66
2023/06/19 02:54:55;;;;;;;29.27;8.80;;;28.60;51.80;;;;;;5026468;28;20215;-71
2023/06/19 02:57:21;;;;;;;31.67;9.77;;;28.50;51.70;;;;;;5027589;28;20681;-65
2023/06/19 02:59:49;;;;;;;31.13;9.37;;;28.50;51.80;;;;;;5026965;28;20201;-71
2023/06/19 03:02:16;;;;;;;34.67;10.10;;;28.50;51.80;;;;;;5021818;28;20264;-68
2023/06/19 03:04:44;;;;;;;36.63;9.67;;;28.50;51.80;;;;;;5032016;28;20578;-65
2023/06/19 03:07:13;;;;;;;31.60;10.03;;;28.50;51.80;;;;;;5011268;28;20208;-68
2023/06/19 03:09:40;;;;;;;48.17;11.17;;;28.40;51.70;;;;;;5010231;28;20197;-68
2023/06/19 03:12:08;;;;;;;28.57;9.57;;;28.40;52.40;;;;;;5021200;28;20201;-76
2023/06/19 03:14:35;;;;;;;37.57;10.50;;;28.40;51.70;;;;;;5043954;28;20687;-75
2023/06/19 03:17:02;;;;;;;44.20;11.33;;;28.40;51.80;;;;;;5015092;28;20220;-75
2023/06/19 03:19:29;;;;;;;37.97;10.63;;;28.40;51.80;;;;;;5041095;28;20554;-72
2023/06/19 03:21:56;;;;;;;38.93;11.07;;;28.30;51.70;;;;;;5020271;28;20204;-71
2023/06/19 03:24:25;;;;;;;31.43;10.70;;;28.30;51.80;;;;;;5038409;28;20205;-69
2023/06/19 03:26:52;;;;;;;41.40;11.50;;;28.30;51.80;;;;;;5018501;28;20206;-66
2023/06/19 03:29:19;;;;;;;33.00;11.53;;;28.30;51.80;;;;;;5049654;28;20215;-69
2023/06/19 03:31:46;;;;;;;43.40;12.40;;;28.30;51.80;;;;;;5021358;28;20201;-65
2023/06/19 03:34:13;;;;;;;39.53;12.10;;;28.30;51.80;;;;;;5009538;28;20213;-68
2023/06/19 03:36:40;;;;;;;46.87;12.90;;;28.20;51.80;;;;;;5017954;28;20209;-64
2023/06/19 03:39:07;;;;;;;37.40;12.10;;;28.30;51.80;;;;;;5042465;28;20575;-64
2023/06/19 03:41:36;;;;;;;53.63;13.17;;;28.20;51.70;;;;;;5042378;28;20197;-66
2023/06/19 03:44:03;;;;;;;40.93;12.67;;;28.20;52.30;;;;;;5048905;28;20601;-64
2023/06/19 03:46:30;;;;;;;35.97;12.60;;;28.10;51.70;;;;;;5049231;28;20234;-66
2023/06/19 03:48:57;;;;;;;36.77;12.33;;;28.10;51.70;;;;;;5043598;28;20196;-65
2023/06/19 03:51:24;;;;;;;36.27;12.20;;;28.10;51.90;;;;;;5049226;28;20215;-64
2023/06/19 03:53:51;;;;;;;36.03;12.30;;;28.10;51.70;;;;;;5042648;28;20208;-67
2023/06/19 03:56:17;;;;;;;40.37;13.13;;;28.10;51.70;;;;;;5029054;28;20594;-64
2023/06/19 03:58:46;;;;;;;31.50;12.07;;;28.10;51.70;;;;;;5037677;28;20201;-65
2023/06/19 04:01:13;;;;;;;36.60;12.57;;;28.00;51.70;;;;;;5048439;28;20204;-64
2023/06/19 04:03:39;;;;;;;43.70;12.60;;;28.00;51.70;;;;;;5029288;28;20193;-66
2023/06/19 04:06:06;;;;;;;46.27;13.23;;;28.00;51.70;;;;;;5029396;28;20233;-66
2023/06/19 04:08:34;;;;;;;33.07;11.87;;;28.00;51.70;;;;;;5033017;28;20201;-64
2023/06/19 04:11:01;;;;;;;31.37;11.97;;;28.00;51.70;;;;;;5036650;28;20209;-64
2023/06/19 04:13:28;;;;;;;41.93;13.33;;;28.00;51.70;;;;;;5028811;28;20193;-64
2023/06/19 04:15:56;;;;;;;36.10;12.87;;;27.90;51.70;;;;;;5042670;28;20676;-65
2023/06/19 04:18:23;;;;;;;40.57;13.73;;;27.90;51.70;;;;;;5027417;28;20205;-64
2023/06/19 04:20:50;;;;;;;39.03;13.10;;;27.90;51.70;;;;;;5023013;28;20200;-67
2023/06/19 04:23:17;;;;;;;30.07;11.87;;;27.90;51.70;;;;;;5009663;28;20605;-64
2023/06/19 04:25:43;;;;;;;49.37;14.03;;;27.90;51.70;;;;;;5008552;28;20249;-64
2023/06/19 04:28:10;;;;;;;52.73;14.00;;;27.90;51.70;;;;;;5022634;28;20230;-71
2023/06/19 04:30:39;;;;;;;34.93;11.87;;;27.80;51.70;;;;;;5018413;28;20189;-64
2023/06/19 04:33:08;;;;;;;40.07;12.03;;;27.80;51.70;;;;;;5045605;28;20206;-65
2023/06/19 04:35:39;;;;;;;50.97;13.30;;;27.90;51.70;;;;;;5037444;28;20223;-65
2023/06/19 04:38:06;;;;;;;45.80;13.33;;;27.80;51.70;;;;;;5028746;28;20267;-64
2023/06/19 04:40:33;;;;;;;35.40;11.60;;;27.80;51.70;;;;;;5028705;28;20201;-67
2023/06/19 04:43:00;;;;;;;36.60;13.07;;;27.80;51.80;;;;;;5020377;28;20205;-66
2023/06/19 04:45:27;;;;;;;70.25;15.23;;;27.80;51.80;;;;;;5008271;28;20363;-63
2023/06/19 04:47:54;;;;;;;36.20;12.20;;;27.80;51.80;;;;;;5023370;28;20208;-65
2023/06/19 04:50:22;;;;;;;43.10;13.70;;;27.70;51.70;;;;;;5020180;28;20196;-63
2023/06/19 04:52:50;;;;;;;42.57;13.20;;;27.70;51.80;;;;;;5044338;28;20573;-63
2023/06/19 04:55:17;;;;;;;45.23;13.13;;;27.70;51.80;;;;;;5030866;28;20204;-63
2023/06/19 04:57:44;;;;;;;46.50;13.17;;;27.70;51.80;;;;;;5029223;28;20197;-69
2023/06/19 05:00:12;;;;;;;38.30;12.67;;;27.70;51.70;;;;;;5011928;28;20205;-67
2023/06/19 05:02:43;;;;;;;38.27;12.30;;;27.60;51.70;;;;;;5026180;28;20206;-65
2023/06/19 05:05:10;;;;;;;57.07;13.83;;;27.60;51.70;;;;;;5025494;28;20694;-63
2023/06/19 05:07:38;;;;;;;44.10;11.87;;;27.70;51.80;;;;;;5007830;28;20197;-63
2023/06/19 05:10:06;;;;;;;56.90;13.43;;;27.60;51.70;;;;;;5007987;28;20551;-65
2023/06/19 05:12:33;;;;;;;40.63;11.97;;;27.70;51.80;;;;;;5013726;28;20200;-67
2023/06/19 05:15:00;;;;;;;43.70;11.80;;;27.60;51.80;;;;;;5022534;28;20201;-63
2023/06/19 05:17:26;;;;;;;65.00;13.30;;;27.60;51.80;;;;;;5016955;28;20205;-62
2023/06/19 05:19:53;;;;;;;35.07;10.17;;;27.60;51.80;;;;;;5027545;28;20586;-63
2023/06/19 05:22:21;;;;;;;39.43;11.00;;;27.60;51.80;;;;;;5012859;28;20193;-63
2023/06/19 05:24:49;;;;;;;37.47;10.57;;;27.60;51.80;;;;;;5007996;28;20212;-65
2023/06/19 05:27:16;;;;;;;45.00;10.83;;;27.60;51.80;;;;;;5007240;28;20194;-63
2023/06/19 05:29:43;;;;;;;28.40;9.87;;;27.60;51.90;;;;;;5013770;28;20672;-64
2023/06/19 05:32:10;;;;;;;47.87;11.20;;;27.60;51.80;;;;;;5035158;28;20204;-63
2023/06/19 05:34:37;;;;;;;41.43;10.63;;;27.50;51.80;;;;;;5018022;28;20204;-63
2023/06/19 05:37:04;;;;;;;33.47;10.00;;;27.50;51.80;;;;;;5018518;28;20213;-64
2023/06/19 05:39:30;;;;;;;38.73;9.97;;;27.50;51.80;;;;;;5021770;28;20201;-63
2023/06/19 05:42:01;;;;;;;31.10;9.77;;;27.60;51.90;;;;;;5027884;28;20205;-69
2023/06/19 05:44:28;;;;;;;33.80;9.13;;;27.50;51.80;;;;;;5027987;28;20189;-63
2023/06/19 05:46:55;;;;;;;34.20;9.77;;;27.50;51.80;;;;;;5028079;28;20697;-65
2023/06/19 05:49:22;;;;;;;32.40;9.37;;;27.60;51.90;;;;;;5022096;28;20206;-63
2023/06/19 05:51:49;;;;;;;32.40;9.30;;;27.50;51.90;;;;;;5044188;28;20239;-63
2023/06/19 05:54:17;;;;;;;52.87;11.80;;;27.50;51.80;;;;;;5014927;28;20201;-66
2023/06/19 05:56:44;;;;;;;35.50;9.07;;;27.60;51.90;;;;;;5044047;28;20250;-63
2023/06/19 05:59:14;;;;;;;28.40;9.07;;;27.50;51.90;;;;;;5029719;28;20204;-65
2023/06/19 06:01:41;;;;;;;45.77;10.47;;;27.60;51.90;;;;;;5027596;28;20233;-62
2023/06/19 06:04:08;;;;;;;47.97;10.13;;;27.50;51.90;;;;;;5029433;28;20511;-64
2023/06/19 06:06:34;;;;;;;35.73;9.97;;;27.60;52.00;;;;;;5031807;28;20251;-63
2023/06/19 06:09:01;;;;;;;37.50;9.67;;;27.50;51.90;;;;;;5023431;28;20681;-62
2023/06/19 06:11:28;;;;;;;31.10;9.00;;;27.50;51.90;;;;;;5022842;28;20675;-62
2023/06/19 06:13:55;;;;;;;34.63;9.37;;;27.50;51.90;;;;;;5034520;28;20201;-62
2023/06/19 06:16:23;;;;;;;24.57;8.03;;;27.50;51.90;;;;;;5022403;28;20207;-62
2023/06/19 06:18:50;;;;;;;33.60;8.83;;;27.60;52.00;;;;;;5043622;28;20209;-70
2023/06/19 06:21:17;;;;;;;40.17;9.43;;;27.60;51.90;;;;;;5027186;28;20205;-62
2023/06/19 06:23:44;;;;;;;32.63;8.57;;;27.60;52.00;;;;;;5021998;28;20206;-69
2023/06/19 06:26:11;;;;;;;40.10;9.80;;;27.60;52.00;;;;;;5010068;28;20217;-63
2023/06/19 06:28:39;;;;;;;40.63;9.17;;;27.60;52.00;;;;;;5010510;28;20205;-63
2023/06/19 06:31:06;;;;;;;31.23;8.33;;;27.60;52.00;;;;;;5029903;28;20239;-64
2023/06/19 06:33:35;;;;;;;53.80;10.70;;;27.60;52.00;;;;;;5030144;28;20280;-63
2023/06/19 06:36:02;;;;;;;58.50;11.40;;;27.60;52.00;;;;;;5032361;28;20208;-66
2023/06/19 06:38:29;;;;;;;34.73;9.17;;;27.60;52.00;;;;;;5036444;28;20205;-63
2023/06/19 06:40:56;;;;;;;32.00;8.90;;;27.60;52.00;;;;;;5044971;28;20215;-67
2023/06/19 06:43:23;;;;;;;64.83;12.17;;;27.70;52.10;;;;;;5027853;28;20220;-63
2023/06/19 06:45:50;;;;;;;47.67;9.57;;;27.60;52.00;;;;;;5025396;28;20224;-65
2023/06/19 06:48:17;;;;;;;51.77;10.40;;;27.60;52.00;;;;;;5039503;28;20204;-67
2023/06/19 06:50:45;;;;;;;27.03;8.23;;;27.60;52.00;;;;;;5040855;28;20228;-62
2023/06/19 06:53:12;;;;;;;36.57;9.13;;;27.70;52.10;;;;;;5022911;28;20237;-62
2023/06/19 06:55:39;;;;;;;32.07;8.50;;;27.70;52.10;;;;;;5021705;28;20215;-63
2023/06/19 06:58:06;;;;;;;56.50;10.87;;;27.70;52.10;;;;;;5015415;28;20209;-63
2023/06/19 07:00:33;;;;;;;55.30;10.70;;;27.70;52.10;;;;;;5012451;28;20197;-63
2023/06/19 07:02:59;;;;;;;27.47;8.03;;;27.70;52.10;;;;;;5047892;28;20657;-63
2023/06/19 07:05:28;;;;;;;35.47;9.13;;;27.70;52.10;;;;;;5022919;28;20212;-66
2023/06/19 07:07:57;;;;;;;33.43;7.97;;;27.70;52.10;;;;;;5034037;28;20200;-63
2023/06/19 07:10:24;;;;;;;35.10;9.20;;;27.80;52.20;;;;;;5039092;28;20209;-68
2023/06/19 07:12:51;;;;;;;46.33;9.40;;;27.80;52.20;;;;;;5040772;28;20289;-72
2023/06/19 07:15:18;;;;;;;26.73;8.43;;;27.80;52.20;;;;;;5038415;28;20293;-76
2023/06/19 07:17:45;;;;;;;38.13;9.30;;;27.80;52.20;;;;;;5021676;28;20208;-72
2023/06/19 07:20:12;;;;;;;46.67;9.90;;;27.80;52.20;;;;;;5022003;28;20217;-67
2023/06/19 07:22:39;;;;;;;26.67;8.60;;;27.80;52.20;;;;;;5010481;28;20225;-74
2023/06/19 07:25:10;;;;;;;34.10;8.97;;;27.80;52.20;;;;;;5024797;28;20192;-63
2023/06/19 07:27:37;;;;;;;26.07;7.90;;;27.80;52.20;;;;;;5039357;28;20590;-63
2023/06/19 07:30:06;;;;;;;35.17;8.73;;;27.80;52.20;;;;;;5034383;28;20212;-63
2023/06/19 07:32:33;;;;;;;43.90;9.53;;;27.90;52.20;;;;;;5034286;28;20211;-62
2023/06/19 07:35:00;;;;;;;27.97;8.43;;;27.90;52.30;;;;;;5035127;28;20335;-63
2023/06/19 07:37:27;;;;;;;27.80;7.97;;;27.90;52.30;;;;;;5037897;28;20679;-64
2023/06/19 07:39:54;;;;;;;29.70;8.17;;;27.90;52.30;;;;;;5042985;28;20215;-65
2023/06/19 07:42:22;;;;;;;37.93;8.80;;;27.90;52.30;;;;;;5035840;28;20225;-68
2023/06/19 07:44:49;;;;;;;30.60;8.23;;;28.00;52.40;;;;;;5044094;28;20216;-72
2023/06/19 07:47:17;;;;;;;29.70;7.93;;;28.00;52.40;;;;;;5025217;28;20237;-75
2023/06/19 07:49:44;;;;;;;32.60;8.53;;;28.00;52.40;;;;;;5026919;28;20224;-74
2023/06/19 07:52:11;;;;;;;29.30;8.07;;;28.00;52.30;;;;;;5029102;28;20200;-76
2023/06/19 07:54:49;;;;;;;44.67;9.63;;;28.00;52.40;;;;;;5039381;28;20203;-67
2023/06/19 07:57:16;;;;;;;53.97;10.70;;;28.10;52.50;;;;;;5022156;28;20204;-63
2023/06/19 07:59:44;;;;;;;57.67;10.83;;;28.10;52.40;;;;;;5023956;28;20197;-62
2023/06/19 08:02:11;;;;;;;47.77;10.10;;;28.10;52.30;;;;;;5035607;28;20199;-63
2023/06/19 08:04:38;;;;;;;42.57;10.07;;;28.00;52.30;;;;;;5024615;28;20211;-63
2023/06/19 08:07:06;;;;;;;36.53;9.03;;;28.10;52.30;;;;;;5023391;28;20240;-63
2023/06/19 08:09:33;;;;;;;34.77;8.83;;;28.20;52.30;;;;;;5009345;28;20548;-63
2023/06/19 08:12:00;;;;;;;30.87;8.13;;;28.20;52.30;;;;;;5009187;28;20209;-64
2023/06/19 08:14:26;;;;;;;37.40;9.87;;;28.20;52.30;;;;;;5017031;28;20197;-64
2023/06/19 08:16:55;;;;;;;40.80;9.00;;;28.20;52.30;;;;;;5035448;28;20204;-65
2023/06/19 08:19:22;;;;;;;33.43;9.57;;;28.20;52.30;;;;;;5048625;28;20194;-69
2023/06/19 08:21:49;;;;;;;35.67;9.13;;;28.30;52.30;;;;;;5011562;28;20200;-67
2023/06/19 08:24:16;;;;;;;40.73;9.63;;;28.30;52.30;;;;;;5011830;28;20693;-63
2023/06/19 08:26:42;;;;;;;53.27;10.47;;;28.30;52.30;;;;;;5024344;28;20235;-62
2023/06/19 08:29:09;;;;;;;56.43;11.13;;;28.30;52.30;;;;;;5013228;28;20204;-62
2023/06/19 08:31:36;;;;;;;36.20;9.27;;;28.30;52.30;;;;;;5018145;28;20202;-66
2023/06/19 08:34:07;;;;;;;44.90;9.73;;;28.40;52.40;;;;;;5016410;28;20207;-71
2023/06/19 08:36:34;;;;;;;43.57;10.03;;;28.40;52.40;;;;;;5009217;28;20208;-62
2023/06/19 08:39:01;;;;;;;38.23;8.73;;;28.40;52.40;;;;;;5013224;28;20953;-63
2023/06/19 08:41:28;;;;;;;38.10;8.67;;;28.40;52.40;;;;;;5034033;28;20610;-68
2023/06/19 08:43:55;;;;;;;43.27;9.60;;;28.40;52.40;;;;;;5011941;28;20205;-68
2023/06/19 08:46:22;;;;;;;39.27;9.00;;;28.40;52.30;;;;;;5033088;28;20220;-68
2023/06/19 08:48:49;;;;;;;27.83;8.37;;;28.50;52.40;;;;;;5020509;28;20208;-68
2023/06/19 08:51:17;;;;;;;38.37;8.90;;;28.50;52.40;;;;;;5040208;28;20207;-72
2023/06/19 08:53:50;;;;;;;47.70;9.97;;;28.50;52.30;;;;;;5011912;28;20252;-71
2023/06/19 08:56:17;;;;;;;46.30;9.37;;;28.50;52.30;;;;;;5034811;28;20235;-61
2023/06/19 08:58:44;;;;;;;59.47;10.70;;;28.60;52.40;;;;;;5030003;28;20261;-61
2023/06/19 09:01:13;;;;;;;74.40;12.27;;;28.60;52.40;;;;;;5022593;28;20205;-63
2023/06/19 09:03:40;;;;;;;33.83;8.80;;;28.60;52.40;;;;;;5032190;28;20202;-61
2023/06/19 09:06:08;;;;;;;32.97;8.17;;;28.60;53.00;;;;;;5037743;28;20205;-61
2023/06/19 09:08:37;;;;;;;30.13;7.97;;;28.70;52.50;;;;;;5022463;28;20209;-62
2023/06/19 09:11:05;;;;;;;38.80;8.87;;;28.70;52.40;;;;;;5015456;28;20229;-72
2023/06/19 09:13:33;;;;;;;33.83;8.73;;;28.70;52.40;;;;;;5017235;28;20216;-76
2023/06/19 09:16:02;;;;;;;25.07;7.47;;;28.70;52.40;;;;;;5033600;28;20194;-76
2023/06/19 09:18:31;;;;;;;41.23;8.83;;;28.80;52.40;;;;;;5019192;28;20836;-74
2023/06/19 09:20:58;;;;;;;48.87;9.87;;;28.80;52.40;;;;;;5007577;28;20255;-64
2023/06/19 09:23:25;;;;;;;29.53;8.17;;;28.80;52.40;;;;;;5017445;28;20202;-75
2023/06/19 09:25:55;;;;;;;51.00;9.80;;;28.80;52.40;;;;;;5014306;28;20201;-61
2023/06/19 09:28:24;;;;;;;70.47;11.70;;;28.90;52.40;;;;;;5015132;28;20232;-64
2023/06/19 09:30:56;;;;;;;62.67;11.10;;;28.90;52.40;;;;;;5029963;28;20207;-64
2023/06/19 09:33:23;;;;;;;43.40;9.50;;;29.00;52.50;;;;;;5039587;28;20232;-62
2023/06/19 09:35:50;;;;;;;32.07;8.53;;;29.00;52.40;;;;;;5035113;28;20221;-66
2023/06/19 09:38:18;;;;;;;31.70;8.50;;;29.00;52.30;;;;;;5045196;28;20719;-65
2023/06/19 09:40:46;;;;;;;60.00;10.73;;;29.00;52.30;;;;;;5028009;28;20227;-62
2023/06/19 09:43:19;;;;;;;21.70;6.93;;;29.00;52.40;;;;;;5033604;28;20710;-61
2023/06/19 09:45:51;;;;;;;30.83;8.03;;;29.00;52.20;;;;;;5032540;28;20243;-61
2023/06/19 09:48:21;;;;;;;52.27;9.93;;;29.00;52.20;;;;;;5027476;28;20298;-61
2023/06/19 09:50:51;;;;;;;37.57;9.00;;;29.10;52.20;;;;;;5012369;28;20262;-61
2023/06/19 09:53:20;;;;;;;28.83;7.67;;;29.10;52.20;;;;;;5022890;28;20216;-62
2023/06/19 09:55:50;;;;;;;36.80;8.83;;;29.10;52.20;;;;;;5033750;28;20200;-63
2023/06/19 09:58:19;;;;;;;34.50;8.40;;;29.20;52.30;;;;;;5047070;28;20223;-61
2023/06/19 10:00:47;;;;;;;29.20;8.23;;;29.10;52.20;;;;;;5047686;28;20196;-60
2023/06/19 10:03:16;;;;;;;76.07;12.77;;;29.20;52.10;;;;;;5042517;28;20656;-61
2023/06/19 10:05:43;;;;;;;49.50;10.23;;;29.20;52.10;;;;;;5019792;28;20717;-63
2023/06/19 10:08:10;;;;;;;30.73;8.63;;;29.20;52.10;;;;;;5023901;28;20228;-61
2023/06/19 10:10:46;;;;;;;52.27;10.33;;;29.20;52.10;;;;;;5037190;28;20262;-62
2023/06/19 10:13:15;;;;;;;28.07;8.17;;;29.20;52.00;;;;;;5033362;28;20310;-61
2023/06/19 10:15:44;;;;;;;32.40;8.97;;;29.30;52.00;;;;;;5047354;28;20665;-64
2023/06/19 10:18:17;;;;;;;34.23;8.63;;;29.30;52.00;;;;;;5010037;28;20202;-65
2023/06/19 10:20:44;;;;;;;45.93;9.83;;;29.30;52.10;;;;;;5028998;28;20208;-62
2023/06/19 10:23:16;;;;;;;34.30;8.60;;;29.30;52.10;;;;;;5007166;28;20862;-62
2023/06/19 10:25:44;;;;;;;31.17;8.63;;;29.30;52.00;;;;;;5021878;28;20204;-64
2023/06/19 10:28:18;;;;;;;30.10;7.67;;;29.40;52.10;;;;;;5026139;28;20212;-62
2023/06/19 10:30:53;;;;;;;38.20;8.83;;;29.40;52.00;;;;;;5026290;28;20204;-64
2023/06/19 10:33:19;;;;;;;38.90;8.90;;;29.40;52.00;;;;;;5024906;28;20261;-62
2023/06/19 10:35:46;;;;;;;29.53;8.00;;;29.40;52.00;;;;;;5009868;28;20216;-62
2023/06/19 10:38:16;;;;;;;33.23;7.87;;;29.50;52.00;;;;;;5007552;28;20213;-62
2023/06/19 10:40:43;;;;;;;39.43;9.00;;;29.60;52.00;;;;;;5010539;28;20223;-62
2023/06/19 10:43:09;;;;;;;30.03;7.73;;;29.60;52.00;;;;;;5024513;28;20571;-64
2023/06/19 10:45:36;;;;;;;48.57;9.60;;;29.60;52.00;;;;;;5008712;28;20206;-67
2023/06/19 10:48:05;;;;;;;50.13;9.20;;;29.60;51.90;;;;;;5009442;28;20252;-62
2023/06/19 10:50:36;;;;;;;31.33;7.57;;;29.70;52.50;;;;;;5022328;28;20650;-61
2023/06/19 10:53:03;;;;;;;36.80;8.30;;;29.70;51.80;;;;;;5027219;28;20255;-62
2023/06/19 10:55:30;;;;;;;30.70;8.10;;;29.80;51.90;;;;;;5030507;28;20284;-65
2023/06/19 10:57:57;;;;;;;30.60;8.27;;;29.80;51.80;;;;;;5023819;28;20202;-65
2023/06/19 11:00:26;;;;;;;26.23;7.63;;;29.90;51.90;;;;;;5028195;28;20200;-64
2023/06/19 11:02:53;;;;;;;45.27;9.07;;;30.00;51.70;;;;;;5047003;28;20656;-64
2023/06/19 11:05:22;;;;;;;33.90;8.40;;;30.00;51.70;;;;;;5024347;28;20208;-68
2023/06/19 11:07:54;;;;;;;30.63;8.23;;;30.10;51.70;;;;;;5010641;28;20705;-64
2023/06/19 11:10:22;;;;;;;34.10;8.13;;;30.30;51.80;;;;;;5010291;28;20201;-62
2023/06/19 11:12:50;;;;;;;33.93;8.10;;;30.40;51.90;;;;;;5009989;28;20312;-62
2023/06/19 11:15:17;;;;;;;25.67;7.93;;;30.50;51.80;;;;;;5024315;28;20193;-63
2023/06/19 11:17:44;;;;;;;36.43;8.47;;;30.70;52.00;;;;;;5010808;28;20233;-62
2023/06/19 11:20:12;;;;;;;27.63;8.40;;;30.80;51.80;;;;;;5011776;28;20202;-62
2023/06/19 11:22:42;;;;;;;33.97;8.32;;;31.00;51.60;;;;;;5010481;28;20209;-62
2023/06/19 11:25:10;;;;;;;31.80;8.38;;;31.20;51.70;;;;;;5010596;28;20271;-61
2023/06/19 11:27:40;;;;;;;28.90;8.05;;;31.30;51.50;;;;;;5010304;28;20221;-62
2023/06/19 11:30:09;;;;;;;50.88;10.18;;;31.50;51.40;;;;;;5010946;28;20776;-63
2023/06/19 11:32:40;;;;;;;34.85;9.10;;;31.60;51.20;;;;;;5023801;28;20263;-61
2023/06/19 11:35:10;;;;;;;47.33;9.90;;;31.80;51.20;;;;;;5010368;28;20224;-63
2023/06/19 11:37:37;;;;;;;23.55;7.55;;;31.90;51.00;;;;;;5019101;28;20207;-62
2023/06/19 11:40:14;;;;;;;36.33;8.55;;;32.00;50.70;;;;;;5029945;28;20221;-62
2023/06/19 11:42:48;;;;;;;33.95;7.80;;;32.10;50.50;;;;;;5015857;28;20208;-62
2023/06/19 11:45:16;;;;;;;40.70;9.00;;;32.20;50.50;;;;;;5010184;28;20197;-62
2023/06/19 11:47:44;;;;;;;27.23;7.70;;;32.30;50.50;;;;;;5009871;28;20239;-66
2023/06/19 11:50:12;;;;;;;33.28;8.80;;;32.40;50.50;;;;;;5017836;28;20211;-62
2023/06/19 11:52:39;;;;;;;28.55;8.07;;;32.50;50.70;;;;;;5029895;28;20197;-61
2023/06/19 11:55:08;;;;;;;41.38;9.70;;;32.60;50.50;;;;;;5023733;28;20212;-62
2023/06/19 11:57:35;;;;;;;34.72;9.27;;;32.70;50.30;;;;;;5029430;28;20680;-63
2023/06/19 12:00:06;;;;;;;22.67;7.18;;;32.70;50.20;;;;;;5030180;28;20197;-62
2023/06/19 12:02:33;;;;;;;33.53;8.23;;;32.90;50.40;;;;;;5029416;28;20276;-63
2023/06/19 12:05:00;;;;;;;37.00;8.88;;;33.00;50.10;;;;;;5029118;28;20196;-62
2023/06/19 12:07:27;;;;;;;24.17;7.50;;;33.10;50.20;;;;;;5028724;28;20220;-62
2023/06/19 12:09:54;;;;;;;26.73;7.93;;;33.20;50.10;;;;;;5014254;28;20205;-62
2023/06/19 12:12:22;;;;;;;28.20;7.88;;;33.30;49.80;;;;;;5009018;28;20205;-62
2023/06/19 12:14:49;;;;;;;57.25;10.43;;;33.40;49.50;;;;;;5008143;28;20582;-63
2023/06/19 12:17:16;;;;;;;26.95;7.57;;;33.50;49.40;;;;;;5008655;28;20670;-62
2023/06/19 12:19:43;;;;;;;34.55;7.85;;;33.50;49.50;;;;;;5010134;28;20220;-62
2023/06/19 12:22:09;;;;;;;35.75;8.18;;;33.60;49.40;;;;;;5008914;28;20212;-62
2023/06/19 12:24:36;;;;;;;40.28;9.05;;;33.70;49.40;;;;;;5024322;28;20201;-62
2023/06/19 12:27:03;;;;;;;30.92;7.65;;;33.70;49.10;;;;;;5008832;28;20212;-69
2023/06/19 12:29:32;;;;;;;42.70;9.02;;;33.80;49.20;;;;;;5008945;28;20213;-64
2023/06/19 12:32:02;;;;;;;30.65;7.78;;;33.80;48.90;;;;;;5024335;28;20228;-62
2023/06/19 12:34:29;;;;;;;24.73;7.65;;;33.90;48.70;;;;;;5026823;28;20210;-62
2023/06/19 12:36:56;;;;;;;25.67;7.22;;;33.90;48.90;;;;;;5048603;28;20208;-65